Time;durP1;ratioP1;P1;durP2;ratioP2;P2;SDS_P1;SDS_P2;PMS_P1;PMS_P2;Temp;Humidity;BMP_temperature;BMP_pressure;BME280_temperature;BME280_humidity;BME280_pressure;Samples;Min_cycle;Max_cycle;Signal;HPM_P1;HPM_P2
2022/11/25 00:00:31;;;;;;;4.43;1.52;;;;;;;9.62;51.84;99323.97;3144827;28;20137;-69
2022/11/25 00:02:03;;;;;;;2.83;1.70;;;;;;;9.61;52.30;99321.41;3144867;28;20055;-70
2022/11/25 00:03:35;;;;;;;4.70;1.98;;;;;;;9.57;52.48;99326.75;3144790;28;20052;-69
2022/11/25 00:05:08;;;;;;;3.20;1.40;;;;;;;9.59;52.10;99323.28;3144832;28;20048;-68
2022/11/25 00:06:40;;;;;;;3.20;1.67;;;;;;;9.53;52.44;99316.59;3145060;28;20045;-70
2022/11/25 00:08:10;;;;;;;2.72;1.83;;;;;;;9.55;52.47;99319.97;3144676;28;20048;-69
2022/11/25 00:09:42;;;;;;;3.00;1.75;;;;;;;9.51;52.29;99318.44;3144996;28;20049;-69
2022/11/25 00:11:14;;;;;;;3.08;1.83;;;;;;;9.52;52.50;99322.69;3145105;28;20048;-69
2022/11/25 00:12:47;;;;;;;3.85;1.52;;;;;;;9.50;52.66;99325.41;3144721;28;20044;-70
2022/11/25 00:14:20;;;;;;;3.30;1.85;;;;;;;9.51;52.40;99323.63;3144860;28;20122;-70
2022/11/25 00:15:51;;;;;;;5.03;1.80;;;;;;;9.49;52.38;99328.88;3144769;28;20658;-70
2022/11/25 00:17:23;;;;;;;4.40;1.50;;;;;;;9.49;52.45;99318.50;3144667;28;20127;-71
2022/11/25 00:18:57;;;;;;;3.53;1.40;;;;;;;9.49;52.59;99325.44;3144525;28;20054;-69
2022/11/25 00:20:27;;;;;;;2.25;1.50;;;;;;;9.49;52.20;99325.44;3144775;28;20489;-70
2022/11/25 00:21:59;;;;;;;3.42;1.65;;;;;;;9.51;52.19;99324.47;3144659;28;20150;-71
2022/11/25 00:23:31;;;;;;;4.35;1.73;;;;;;;9.51;52.36;99321.03;3144828;28;20106;-71
2022/11/25 00:25:03;;;;;;;2.13;1.40;;;;;;;9.53;52.39;99327.00;3144622;28;20052;-71
2022/11/25 00:26:36;;;;;;;3.38;1.58;;;;;;;9.53;52.33;99321.81;3143900;28;20059;-70
2022/11/25 00:28:07;;;;;;;1.98;1.40;;;;;;;9.52;52.03;99323.56;3141892;28;20056;-69
2022/11/25 00:29:40;;;;;;;2.30;1.40;;;;;;;9.53;52.26;99319.22;3144674;28;20131;-69
2022/11/25 00:31:14;;;;;;;3.63;1.63;;;;;;;9.38;52.13;99305.19;3144575;28;20052;-69
2022/11/25 00:32:46;;;;;;;4.65;1.60;;;;;;;9.50;52.42;99314.16;3144692;28;20056;-69
2022/11/25 00:34:18;;;;;;;3.63;1.60;;;;;;;9.51;52.07;99323.63;3144391;28;20044;-69
2022/11/25 00:35:48;;;;;;;5.55;1.90;;;;;;;9.51;52.39;99334.88;3144495;28;20048;-68
2022/11/25 00:37:20;;;;;;;3.97;2.10;;;;;;;9.46;52.39;99321.25;3144777;28;20139;-69
2022/11/25 00:38:54;;;;;;;2.28;1.35;;;;;;;9.51;52.10;99329.66;3144365;28;20094;-69
2022/11/25 00:40:26;;;;;;;3.22;1.70;;;;;;;9.54;52.11;99329.50;3144218;28;20053;-70
2022/11/25 00:45:38;;;;;;;6.82;1.70;;;;;;;9.52;52.31;99323.56;3144653;28;20383;-69
2022/11/25 00:47:12;;;;;;;2.83;1.40;;;;;;;9.50;52.02;99328.00;3144364;28;20071;-70
2022/11/25 00:48:42;;;;;;;3.13;1.58;;;;;;;9.51;52.00;99321.88;3144196;28;20048;-69
2022/11/25 00:50:14;;;;;;;2.92;1.73;;;;;;;9.53;51.96;99324.41;3144284;28;20073;-69
2022/11/25 00:51:46;;;;;;;2.25;1.17;;;;;;;9.42;51.78;99306.72;3144212;28;20052;-71
2022/11/25 00:53:18;;;;;;;1.58;1.30;;;;;;;9.55;51.63;99331.22;3144255;28;20110;-68
2022/11/25 00:54:50;;;;;;;3.55;1.55;;;;;;;9.51;51.52;99314.06;3144485;28;20074;-68
2022/11/25 00:56:22;;;;;;;4.25;1.50;;;;;;;9.59;51.53;99323.28;3144122;28;20052;-68
2022/11/25 00:57:54;;;;;;;4.30;1.67;;;;;;;9.41;51.34;99294.66;3144371;28;20060;-68
2022/11/25 00:59:27;;;;;;;3.25;1.23;;;;;;;9.60;51.37;99330.16;3144611;28;20079;-69
2022/11/25 01:01:02;;;;;;;2.03;1.33;;;;;;;9.62;51.48;99338.72;3132814;28;20048;-68
2022/11/25 01:02:33;;;;;;;1.50;1.20;;;;;;;9.63;51.39;99336.03;3144110;28;20060;-68
2022/11/25 01:04:05;;;;;;;1.95;1.50;;;;;;;9.62;50.90;99326.56;3144249;28;20447;-68
2022/11/25 01:05:37;;;;;;;2.17;1.35;;;;;;;9.45;50.85;99306.56;3144445;28;20044;-69
2022/11/25 01:07:09;;;;;;;2.67;1.40;;;;;;;9.60;50.89;99325.78;3144052;28;20090;-69
2022/11/25 01:08:40;;;;;;;4.75;1.42;;;;;;;9.60;50.47;99324.94;3144410;28;20363;-69
2022/11/25 01:10:12;;;;;;;2.10;1.30;;;;;;;9.56;50.46;99330.28;3144131;28;20190;-71
2022/11/25 01:11:44;;;;;;;4.05;1.45;;;;;;;9.60;50.15;99341.38;3144325;28;20044;-69
2022/11/25 01:13:14;;;;;;;2.83;1.30;;;;;;;9.58;50.51;99332.81;3144384;28;20056;-69
2022/11/25 01:14:46;;;;;;;3.55;1.42;;;;;;;9.59;50.43;99324.09;3144504;28;20080;-70
2022/11/25 01:16:19;;;;;;;1.75;1.30;;;;;;;9.59;50.07;99325.88;3144034;28;20049;-69
2022/11/25 01:17:51;;;;;;;1.60;1.00;;;;;;;9.60;50.53;99336.19;3144249;28;20524;-68
2022/11/25 01:19:24;;;;;;;2.10;1.40;;;;;;;9.61;50.41;99339.63;3144437;28;20082;-69
2022/11/25 01:21:03;;;;;;;2.42;1.30;;;;;;;9.60;50.33;99341.38;3143841;28;20102;-70
2022/11/25 01:22:35;;;;;;;1.98;1.30;;;;;;;9.61;50.19;99340.44;3142208;28;20044;-69
2022/11/25 01:24:07;;;;;;;2.35;1.40;;;;;;;9.61;50.16;99343.06;3143877;28;20048;-70
2022/11/25 01:25:39;;;;;;;1.43;0.90;;;;;;;9.63;50.30;99338.63;3143879;28;20724;-69
2022/11/25 01:27:11;;;;;;;3.08;1.23;;;;;;;9.59;49.98;99338.88;3144271;28;20302;-69
2022/11/25 01:28:41;;;;;;;1.73;1.20;;;;;;;9.61;50.24;99342.22;3144233;28;20044;-69
2022/11/25 01:30:14;;;;;;;3.83;1.10;;;;;;;9.59;50.31;99339.72;3144035;28;20056;-69
2022/11/25 01:31:48;;;;;;;1.85;1.25;;;;;;;9.61;50.07;99343.06;3144353;28;20052;-69
2022/11/25 01:33:19;;;;;;;2.00;0.80;;;;;;;9.58;50.24;99338.00;3144529;28;20053;-69
2022/11/25 01:34:50;;;;;;;1.98;0.90;;;;;;;9.54;50.12;99336.47;3143875;28;20226;-69
2022/11/25 01:36:21;;;;;;;3.83;0.93;;;;;;;9.56;50.41;99339.84;3144248;28;20086;-69
2022/11/25 01:37:53;;;;;;;2.20;0.93;;;;;;;9.56;50.28;99337.25;3144165;28;20215;-69
2022/11/25 01:39:26;;;;;;;1.67;1.00;;;;;;;9.55;50.35;99336.41;3144141;28;20670;-69
2022/11/25 01:40:58;;;;;;;2.70;1.10;;;;;;;9.54;50.16;99336.47;3144105;28;20056;-69
2022/11/25 01:42:31;;;;;;;2.55;0.80;;;;;;;9.51;50.22;99336.63;3143955;28;20103;-69
2022/11/25 01:44:09;;;;;;;3.50;1.00;;;;;;;9.46;50.29;99328.19;3144303;28;20135;-68
2022/11/25 01:45:40;;;;;;;2.13;0.90;;;;;;;9.53;50.32;99340.84;3131973;28;20044;-69
2022/11/25 01:47:22;;;;;;;1.20;0.70;;;;;;;9.54;50.44;99346.88;3143112;28;20152;-69
2022/11/25 01:48:58;;;;;;;3.25;1.10;;;;;;;9.41;50.28;99327.59;3143938;28;20143;-70
2022/11/25 01:50:32;;;;;;;5.05;1.02;;;;;;;9.50;50.64;99341.00;3144254;28;20062;-70
2022/11/25 01:52:12;;;;;;;3.35;1.05;;;;;;;9.56;50.27;99342.47;3143519;28;20513;-70
2022/11/25 01:53:44;;;;;;;2.40;0.90;;;;;;;9.55;50.40;99345.94;3144246;28;20082;-70
2022/11/25 01:55:20;;;;;;;2.58;1.00;;;;;;;9.56;50.66;99351.09;3144163;28;20052;-70
2022/11/25 01:56:59;;;;;;;4.20;0.90;;;;;;;9.53;50.61;99338.25;3143717;28;20048;-70
2022/11/25 01:58:33;;;;;;;5.40;1.40;;;;;;;9.54;50.57;99360.72;3144494;28;20060;-70
2022/11/25 02:00:08;;;;;;;1.48;0.90;;;;;;;9.55;50.63;99354.63;3144100;28;20053;-70
2022/11/25 02:01:39;;;;;;;3.00;1.00;;;;;;;9.54;50.79;99354.69;3144125;28;20048;-70
2022/11/25 02:03:12;;;;;;;1.95;0.98;;;;;;;9.48;50.46;99347.16;3146402;28;20059;-70
2022/11/25 02:04:46;;;;;;;3.08;1.15;;;;;;;9.53;50.74;99361.63;3146638;28;20131;-70
2022/11/25 02:06:22;;;;;;;3.35;1.20;;;;;;;9.53;50.63;99353.84;3146412;28;20059;-70
2022/11/25 02:07:54;;;;;;;2.13;1.17;;;;;;;9.48;50.88;99350.59;3146429;28;20135;-69
2022/11/25 02:09:27;;;;;;;2.47;1.23;;;;;;;9.48;50.62;99360.16;3146188;28;20052;-69
2022/11/25 02:11:03;;;;;;;2.10;1.40;;;;;;;9.32;50.70;99319.31;3146151;28;20048;-69
2022/11/25 02:12:36;;;;;;;3.05;1.15;;;;;;;9.52;50.88;99348.69;3145862;28;20131;-69
2022/11/25 02:14:09;;;;;;;3.08;1.30;;;;;;;9.50;50.74;99355.75;3146121;28;20056;-68
2022/11/25 02:15:41;;;;;;;2.28;1.15;;;;;;;9.48;50.89;99349.78;3146369;28;20048;-70
2022/11/25 02:17:13;;;;;;;3.88;1.42;;;;;;;9.50;51.10;99346.19;3146440;28;20110;-69
2022/11/25 02:18:46;;;;;;;1.52;1.00;;;;;;;9.16;50.93;99299.31;3145988;28;20048;-71
2022/11/25 02:20:19;;;;;;;1.90;1.55;;;;;;;9.50;51.14;99355.75;3145877;28;20056;-69
2022/11/25 02:21:56;;;;;;;3.85;1.23;;;;;;;9.49;51.10;99354.88;3133944;28;20506;-69
2022/11/25 02:23:37;;;;;;;4.10;1.45;;;;;;;9.49;50.79;99354.03;3145622;28;20060;-70
2022/11/25 02:25:17;;;;;;;2.40;1.33;;;;;;;9.47;51.30;99348.09;3142710;28;20087;-69
2022/11/25 02:26:49;;;;;;;3.67;1.75;;;;;;;9.48;51.40;99352.38;3145850;28;20476;-69
2022/11/25 02:28:23;;;;;;;2.42;1.50;;;;;;;9.50;51.08;99366.16;3145883;28;20117;-69
2022/11/25 02:29:55;;;;;;;2.20;1.60;;;;;;;9.48;51.11;99362.75;3146166;28;20091;-69
2022/11/25 02:31:27;;;;;;;2.13;1.23;;;;;;;9.49;51.26;99367.88;3146000;28;20064;-69
2022/11/25 02:32:59;;;;;;;3.60;1.80;;;;;;;9.51;51.37;99367.81;3146022;28;20450;-69
2022/11/25 02:34:32;;;;;;;3.30;1.20;;;;;;;9.44;51.10;99356.88;3145769;28;20061;-69
2022/11/25 02:36:06;;;;;;;2.25;1.38;;;;;;;9.50;51.11;99353.97;3145844;28;20052;-69
2022/11/25 02:37:37;;;;;;;2.20;1.58;;;;;;;9.49;51.15;99354.88;3146039;28;20110;-69
2022/11/25 02:39:09;;;;;;;4.38;1.50;;;;;;;9.50;50.94;99356.59;3145679;28;20052;-71
2022/11/25 02:40:47;;;;;;;7.18;1.55;;;;;;;9.52;50.92;99351.28;3145844;28;20059;-69
2022/11/25 02:42:22;;;;;;;2.38;1.30;;;;;;;9.51;51.22;99349.63;3133750;28;20059;-69
2022/11/25 02:43:54;;;;;;;3.83;1.35;;;;;;;9.46;50.82;99344.63;3145452;28;20143;-69
2022/11/25 02:45:32;;;;;;;2.92;1.50;;;;;;;9.49;51.08;99354.88;3146118;28;20056;-69
2022/11/25 02:47:04;;;;;;;2.20;1.42;;;;;;;9.48;51.10;99345.41;3145879;28;20049;-70
2022/11/25 02:48:38;;;;;;;2.72;1.50;;;;;;;9.49;51.21;99349.69;3145969;28;20052;-69
2022/11/25 02:50:12;;;;;;;2.15;1.55;;;;;;;9.43;50.88;99343.94;3145786;28;20059;-69
2022/11/25 02:51:45;;;;;;;3.78;1.63;;;;;;;9.09;50.91;99289.22;3146083;28;20049;-69
2022/11/25 02:53:16;;;;;;;1.92;1.30;;;;;;;9.22;50.86;99317.22;3145800;28;20053;-69
2022/11/25 02:54:48;;;;;;;3.78;1.83;;;;;;;9.47;50.78;99350.69;3146191;28;20119;-70
2022/11/25 02:56:24;;;;;;;2.50;1.35;;;;;;;9.42;50.74;99345.69;3145639;28;20117;-70
2022/11/25 02:57:55;;;;;;;3.42;1.55;;;;;;;9.43;50.88;99355.19;3134819;28;20060;-69
2022/11/25 02:59:27;;;;;;;3.83;1.40;;;;;;;9.47;50.58;99354.13;3145963;28;20143;-69
2022/11/25 03:00:58;;;;;;;6.80;1.50;;;;;;;9.45;50.38;99360.31;3134158;28;20049;-70
2022/11/25 03:02:29;;;;;;;2.63;1.52;;;;;;;9.48;50.45;99355.81;3145698;28;20053;-69
2022/11/25 03:04:02;;;;;;;3.65;1.20;;;;;;;9.44;50.54;99359.47;3145730;28;20074;-69
2022/11/25 03:05:33;;;;;;;2.45;1.50;;;;;;;9.39;50.71;99348.44;3145777;28;20776;-70
2022/11/25 03:07:05;;;;;;;3.15;1.65;;;;;;;9.48;50.37;99349.78;3145376;28;20101;-69
2022/11/25 03:08:37;;;;;;;2.70;1.40;;;;;;;9.48;50.33;99354.97;3145650;28;20051;-69
2022/11/25 03:10:10;;;;;;;3.58;1.40;;;;;;;9.47;50.20;99351.53;3145764;28;20044;-69
2022/11/25 03:13:33;;;;;;;5.32;1.60;;;;;;;9.42;50.24;99355.25;3140407;28;20049;-70
2022/11/25 03:15:06;;;;;;;2.22;1.42;;;;;;;9.43;49.95;99359.53;3145485;28;20086;-70
2022/11/25 03:16:38;;;;;;;3.47;1.50;;;;;;;9.42;50.14;99371.69;3145503;28;20040;-70
2022/11/25 03:18:10;;;;;;;3.72;1.30;;;;;;;9.23;50.34;99330.16;3145513;28;20441;-70
2022/11/25 03:19:41;;;;;;;7.88;1.33;;;;;;;9.41;50.13;99356.19;3145721;28;20117;-70
2022/11/25 03:21:13;;;;;;;2.03;1.30;;;;;;;9.45;50.24;99366.34;3145500;28;20052;-70
2022/11/25 03:22:45;;;;;;;2.78;1.77;;;;;;;9.09;50.17;99315.22;3145447;28;20433;-70
2022/11/25 03:24:17;;;;;;;3.05;1.60;;;;;;;9.45;50.39;99368.94;3145507;28;20055;-70
2022/11/25 03:25:49;;;;;;;3.08;1.70;;;;;;;9.45;50.13;99362.91;3145134;28;20117;-70
2022/11/25 03:27:22;;;;;;;2.88;1.52;;;;;;;9.46;50.51;99362.81;3145316;28;20044;-70
2022/11/25 03:28:54;;;;;;;2.17;1.30;;;;;;;9.45;50.32;99370.72;3145146;28;20056;-70
2022/11/25 03:30:26;;;;;;;3.15;1.45;;;;;;;9.45;50.47;99366.34;3145304;28;20056;-70
2022/11/25 03:31:58;;;;;;;3.25;1.50;;;;;;;9.44;50.54;99363.84;3145464;28;20230;-70
2022/11/25 03:33:30;;;;;;;2.35;1.30;;;;;;;9.43;50.32;99367.34;3145402;28;20105;-70
2022/11/25 03:35:02;;;;;;;2.78;1.33;;;;;;;9.38;50.16;99356.34;3145174;28;20457;-70
2022/11/25 03:36:34;;;;;;;2.42;1.65;;;;;;;9.37;50.37;99357.22;3145234;28;20177;-70
2022/11/25 03:38:06;;;;;;;3.03;1.40;;;;;;;9.40;50.55;99351.88;3145009;28;20237;-70
2022/11/25 03:39:37;;;;;;;2.72;1.60;;;;;;;9.30;50.50;99338.50;3145709;28;20044;-70
2022/11/25 03:41:09;;;;;;;5.38;1.70;;;;;;;9.39;50.30;99351.06;3145105;28;20052;-70
2022/11/25 03:42:42;;;;;;;3.05;1.75;;;;;;;9.42;50.19;99356.09;3145131;28;20110;-69
2022/11/25 03:44:13;;;;;;;2.45;1.60;;;;;;;9.44;50.22;99364.69;3145003;28;20495;-69
2022/11/25 03:45:48;;;;;;;2.10;1.55;;;;;;;9.20;50.27;99319.91;3145204;28;20082;-69
2022/11/25 03:47:20;;;;;;;2.58;1.35;;;;;;;9.43;49.95;99362.13;3145253;28;20573;-69
2022/11/25 03:48:52;;;;;;;2.78;1.35;;;;;;;9.41;50.30;99361.38;3145116;28;20052;-70
2022/11/25 03:50:24;;;;;;;6.93;1.98;;;;;;;9.44;50.28;99372.47;3145192;28;20441;-70
2022/11/25 03:51:56;;;;;;;1.92;1.40;;;;;;;9.42;49.97;99374.28;3145165;28;20096;-70
2022/11/25 03:53:28;;;;;;;2.88;1.45;;;;;;;9.39;50.16;99373.59;3144900;28;20045;-69
2022/11/25 03:54:59;;;;;;;2.95;1.52;;;;;;;9.44;49.89;99376.84;3145233;28;20048;-69
2022/11/25 03:56:31;;;;;;;2.28;1.35;;;;;;;9.43;49.97;99375.13;3144324;28;20053;-69
2022/11/25 03:58:05;;;;;;;3.50;2.00;;;;;;;9.45;50.27;99368.94;3144989;28;20079;-69
2022/11/25 03:59:36;;;;;;;2.35;1.35;;;;;;;9.42;50.36;99376.88;3145263;28;20049;-68
2022/11/25 04:01:08;;;;;;;2.05;1.38;;;;;;;9.45;49.93;99387.13;3145081;28;20052;-68
2022/11/25 04:02:40;;;;;;;5.28;1.75;;;;;;;9.42;50.27;99379.50;3132631;28;20053;-68
2022/11/25 04:04:11;;;;;;;1.58;1.30;;;;;;;9.44;50.33;99375.06;3143650;28;20244;-69
2022/11/25 04:05:43;;;;;;;4.00;1.38;;;;;;;9.47;49.85;99374.94;3145103;28;20098;-70
2022/11/25 04:07:14;;;;;;;3.08;1.50;;;;;;;9.42;49.85;99376.88;3144767;28;20098;-70
2022/11/25 04:08:46;;;;;;;2.47;1.60;;;;;;;9.46;50.04;99388.81;3144800;28;20052;-69
2022/11/25 04:10:18;;;;;;;2.97;1.58;;;;;;;9.46;50.05;99394.00;3144880;28;20053;-70
2022/11/25 04:13:40;;;;;;;3.85;1.08;;;;;;;9.48;50.06;99388.75;3145042;28;20429;-69
2022/11/25 04:15:11;;;;;;;2.97;1.45;;;;;;;9.47;49.96;99387.91;3144796;28;20260;-69
2022/11/25 04:16:43;;;;;;;1.63;1.20;;;;;;;9.49;50.13;99406.03;3144916;28;20056;-70
2022/11/25 04:18:16;;;;;;;2.70;1.58;;;;;;;9.47;49.86;99392.28;3145115;28;20751;-69
2022/11/25 04:19:48;;;;;;;2.78;1.60;;;;;;;9.45;49.97;99392.34;3144794;28;20109;-70
2022/11/25 04:21:20;;;;;;;4.90;3.30;;;;;;;9.46;50.04;99395.78;3144708;28;20098;-70
2022/11/25 04:22:51;;;;;;;2.47;1.40;;;;;;;9.47;49.65;99394.88;3144701;28;20044;-70
2022/11/25 04:24:22;;;;;;;4.90;1.42;;;;;;;9.52;49.62;99405.88;3144725;28;20052;-70
2022/11/25 04:25:54;;;;;;;2.97;1.10;;;;;;;9.42;49.58;99381.25;3143864;28;20127;-69
2022/11/25 04:27:26;;;;;;;2.35;1.33;;;;;;;9.49;49.65;99401.66;3144957;28;20066;-72
2022/11/25 04:28:59;;;;;;;4.20;1.35;;;;;;;9.50;49.64;99403.38;3144631;28;20297;-69
2022/11/25 04:30:33;;;;;;;2.03;1.42;;;;;;;9.46;49.47;99403.56;3144961;28;20052;-70
2022/11/25 04:32:05;;;;;;;3.22;1.98;;;;;;;9.53;49.72;99412.78;3132338;28;20049;-70
2022/11/25 04:33:37;;;;;;;2.03;1.15;;;;;;;9.43;49.39;99394.16;3140391;28;20464;-70
2022/11/25 04:35:09;;;;;;;3.92;1.63;;;;;;;9.54;49.74;99414.47;3142028;28;20056;-70
2022/11/25 04:36:41;;;;;;;2.55;1.42;;;;;;;9.39;49.23;99387.44;3144771;28;20053;-69
2022/11/25 04:38:13;;;;;;;3.20;1.40;;;;;;;9.54;49.35;99411.84;3144356;28;20052;-69
2022/11/25 04:39:45;;;;;;;2.38;1.67;;;;;;;9.51;49.60;99407.66;3144567;28;20386;-70
2022/11/25 04:41:17;;;;;;;2.53;1.40;;;;;;;9.53;49.32;99410.19;3144653;28;20055;-70
2022/11/25 04:42:47;;;;;;;2.85;1.40;;;;;;;9.53;49.45;99416.22;3144603;28;20410;-70
2022/11/25 04:44:21;;;;;;;2.85;1.58;;;;;;;9.54;49.51;99417.91;3144670;28;20194;-70
2022/11/25 04:45:53;;;;;;;3.03;1.45;;;;;;;9.41;49.15;99400.38;3144609;28;20048;-70
2022/11/25 04:47:25;;;;;;;3.25;1.30;;;;;;;9.51;49.40;99417.19;3144613;28;20122;-69
2022/11/25 04:48:57;;;;;;;1.70;1.20;;;;;;;9.54;49.28;99419.66;3144151;28;20057;-70
2022/11/25 04:50:28;;;;;;;2.10;1.30;;;;;;;9.53;49.39;99423.19;3144394;28;20052;-70
2022/11/25 04:52:00;;;;;;;1.73;1.30;;;;;;;9.53;49.30;99423.19;3144414;28;20045;-70
2022/11/25 04:53:32;;;;;;;2.55;1.45;;;;;;;9.51;49.35;99415.44;3144795;28;20437;-70
2022/11/25 04:55:04;;;;;;;4.13;1.50;;;;;;;9.50;49.38;99426.75;3144736;28;20071;-70
2022/11/25 04:56:36;;;;;;;3.25;1.65;;;;;;;9.50;49.60;99425.94;3144349;28;20383;-70
2022/11/25 04:58:10;;;;;;;3.03;1.70;;;;;;;9.51;49.46;99428.44;3144317;28;20534;-70
2022/11/25 04:59:43;;;;;;;2.13;1.42;;;;;;;9.47;49.60;99423.47;3144721;28;20049;-69
2022/11/25 05:01:14;;;;;;;3.33;1.60;;;;;;;9.43;49.65;99419.31;3144468;28;20544;-69
2022/11/25 05:02:46;;;;;;;3.03;1.60;;;;;;;9.49;49.46;99437.22;3144476;28;20060;-69
2022/11/25 05:04:18;;;;;;;1.92;1.33;;;;;;;9.47;49.48;99437.31;3144458;28;20044;-69
2022/11/25 05:05:49;;;;;;;6.38;1.42;;;;;;;9.45;49.76;99439.13;3144597;28;20117;-70
2022/11/25 05:07:23;;;;;;;4.60;1.60;;;;;;;9.43;49.99;99438.34;3144331;28;20049;-71
2022/11/25 05:08:54;;;;;;;3.22;1.42;;;;;;;9.42;49.91;99434.06;3144034;28;20048;-69
2022/11/25 05:10:26;;;;;;;3.20;1.73;;;;;;;9.43;50.11;99435.75;3144458;28;20090;-69
2022/11/25 05:11:57;;;;;;;2.05;1.42;;;;;;;9.43;50.09;99447.91;3144390;28;20126;-70
2022/11/25 05:13:29;;;;;;;2.25;1.17;;;;;;;9.44;49.77;99449.59;3144502;28;20056;-69
2022/11/25 05:15:03;;;;;;;2.63;1.10;;;;;;;9.43;49.99;99443.53;3144212;28;20102;-69
2022/11/25 05:16:35;;;;;;;2.35;1.38;;;;;;;9.42;49.77;99449.66;3144224;28;20178;-69
2022/11/25 05:18:07;;;;;;;3.67;1.50;;;;;;;9.43;49.75;99453.09;3144280;28;20406;-69
2022/11/25 05:19:39;;;;;;;2.97;1.52;;;;;;;9.44;49.90;99457.41;3144270;28;20093;-69
2022/11/25 05:21:11;;;;;;;2.15;1.50;;;;;;;9.42;49.71;99456.63;3144424;28;20139;-70
2022/11/25 05:22:43;;;;;;;4.07;1.20;;;;;;;9.42;49.86;99467.03;3144023;28;20547;-70
2022/11/25 05:24:14;;;;;;;1.73;1.10;;;;;;;9.43;49.67;99466.09;3144250;28;20462;-69
2022/11/25 05:25:45;;;;;;;2.17;0.93;;;;;;;9.41;49.64;99460.16;3144235;28;20048;-69
2022/11/25 05:27:18;;;;;;;2.55;1.60;;;;;;;9.43;49.47;99458.28;3144187;28;20048;-70
2022/11/25 05:28:50;;;;;;;2.13;1.27;;;;;;;9.41;49.16;99462.75;3144479;28;20125;-69
2022/11/25 05:30:23;;;;;;;1.73;1.27;;;;;;;9.33;49.26;99469.13;3131937;28;20369;-70
2022/11/25 05:31:55;;;;;;;4.50;1.50;;;;;;;9.41;49.03;99470.53;3143427;28;20044;-69
2022/11/25 05:33:26;;;;;;;1.48;1.00;;;;;;;9.43;49.01;99481.69;3144404;28;20098;-70
2022/11/25 05:34:58;;;;;;;3.80;1.70;;;;;;;9.38;49.00;99468.91;3144053;28;20369;-70
2022/11/25 05:36:30;;;;;;;9.60;2.40;;;;;;;9.45;48.98;99479.88;3144347;28;20102;-70
2022/11/25 05:38:03;;;;;;;3.38;1.60;;;;;;;9.47;48.91;99485.84;3146115;28;20048;-71
2022/11/25 05:39:35;;;;;;;2.35;1.40;;;;;;;9.47;49.38;99475.47;3146661;28;20067;-70
2022/11/25 05:41:09;;;;;;;4.47;1.40;;;;;;;9.49;48.97;99495.25;3146604;28;20418;-72
2022/11/25 05:42:41;;;;;;;1.75;1.00;;;;;;;9.47;49.23;99486.69;3146791;28;20052;-70
2022/11/25 05:44:13;;;;;;;3.08;1.48;;;;;;;9.48;49.27;99498.75;3146572;28;20067;-73
2022/11/25 05:45:46;;;;;;;3.17;1.52;;;;;;;9.51;48.96;99493.41;3146979;28;20045;-70
2022/11/25 05:47:18;;;;;;;3.38;1.58;;;;;;;9.51;49.00;99503.81;3146835;28;20063;-69
2022/11/25 05:48:53;;;;;;;6.13;1.45;;;;;;;9.54;49.33;99505.44;3146654;28;20074;-71
2022/11/25 05:50:25;;;;;;;3.33;1.27;;;;;;;9.52;49.41;99508.13;3146601;28;20099;-69
2022/11/25 05:51:57;;;;;;;2.10;1.15;;;;;;;9.52;49.43;99513.31;3142931;28;20052;-69
2022/11/25 05:53:30;;;;;;;4.03;1.75;;;;;;;9.52;49.17;99510.72;3137004;28;20052;-68
2022/11/25 05:55:02;;;;;;;4.53;1.10;;;;;;;9.50;49.55;99515.16;3137535;28;20167;-70
2022/11/25 05:56:34;;;;;;;3.10;1.40;;;;;;;9.53;49.49;99517.59;3137141;28;20318;-70
2022/11/25 05:58:05;;;;;;;3.38;1.30;;;;;;;9.54;49.62;99524.47;3136090;28;20072;-70
2022/11/25 05:59:37;;;;;;;3.28;1.30;;;;;;;9.54;49.73;99528.84;3136676;28;20122;-70
2022/11/25 06:01:13;;;;;;;2.67;1.30;;;;;;;9.55;49.27;99520.13;3135262;28;20213;-69
2022/11/25 06:02:45;;;;;;;2.47;1.30;;;;;;;9.55;49.54;99530.50;3133883;28;20084;-69
2022/11/25 06:04:17;;;;;;;5.07;1.65;;;;;;;9.57;49.80;99533.91;3136159;28;20242;-68
2022/11/25 06:05:49;;;;;;;3.03;1.10;;;;;;;9.58;49.56;99532.97;3136057;28;20122;-69
2022/11/25 06:07:21;;;;;;;2.88;1.00;;;;;;;9.56;49.47;99532.22;3136274;28;20044;-68
2022/11/25 06:08:53;;;;;;;2.83;1.35;;;;;;;9.55;49.51;99536.59;3136783;28;20053;-68
2022/11/25 06:10:25;;;;;;;3.53;1.15;;;;;;;9.52;49.62;99536.72;3137304;28;20440;-76
2022/11/25 06:11:57;;;;;;;2.10;1.00;;;;;;;9.56;49.67;99540.03;3136439;28;20044;-74
2022/11/25 06:13:28;;;;;;;4.50;1.20;;;;;;;9.56;49.71;99551.25;3136638;28;20052;-72
2022/11/25 06:15:00;;;;;;;2.55;1.15;;;;;;;9.54;49.66;99550.47;3137304;28;20416;-72
2022/11/25 06:16:34;;;;;;;2.97;1.63;;;;;;;9.53;49.97;99542.75;3136594;28;20647;-75
2022/11/25 06:18:06;;;;;;;3.35;1.48;;;;;;;9.53;49.75;99537.56;3136492;28;20251;-71
2022/11/25 06:19:38;;;;;;;4.40;1.35;;;;;;;9.50;49.94;99542.91;3136519;28;20053;-72
2022/11/25 06:21:10;;;;;;;3.75;1.23;;;;;;;9.52;49.92;99552.31;3137420;28;20501;-73
2022/11/25 06:22:42;;;;;;;3.35;1.23;;;;;;;9.53;49.93;99560.94;3136472;28;20135;-69
2022/11/25 06:24:14;;;;;;;2.83;1.30;;;;;;;9.53;49.89;99564.41;3136161;28;20056;-76
2022/11/25 06:25:45;;;;;;;5.47;1.23;;;;;;;9.54;49.91;99566.06;3137334;28;20101;-79
2022/11/25 06:27:18;;;;;;;3.72;1.23;;;;;;;9.55;50.21;99566.91;3137062;28;20059;-78
2022/11/25 06:28:53;;;;;;;2.90;1.77;;;;;;;9.56;50.09;99566.00;3135995;28;20101;-76
2022/11/25 06:30:24;;;;;;;2.75;1.17;;;;;;;9.54;49.85;99566.06;3124683;28;20140;-76
2022/11/25 06:31:57;;;;;;;5.30;1.17;;;;;;;9.56;49.99;99571.22;3136013;28;20052;-79
2022/11/25 06:33:29;;;;;;;3.10;1.42;;;;;;;9.60;50.13;99582.31;3133304;28;20049;-78
2022/11/25 06:35:01;;;;;;;6.32;1.33;;;;;;;9.58;50.05;99584.97;3136571;28;20056;-79
2022/11/25 06:36:33;;;;;;;1.77;1.10;;;;;;;9.62;49.77;99583.94;3136769;28;20114;-77
2022/11/25 06:38:05;;;;;;;2.20;0.98;;;;;;;9.61;50.04;99584.00;3136260;28;20106;-79
2022/11/25 06:39:37;;;;;;;3.05;1.30;;;;;;;9.65;49.79;99595.97;3136501;28;20057;-75
2022/11/25 06:41:09;;;;;;;3.97;1.13;;;;;;;9.66;50.01;99595.88;3136398;28;20059;-70
2022/11/25 06:42:42;;;;;;;7.78;1.25;;;;;;;9.64;49.67;99595.09;3139467;28;20048;-72
2022/11/25 06:44:14;;;;;;;1.95;1.08;;;;;;;9.67;49.91;99594.97;3136078;28;20660;-70
2022/11/25 06:45:46;;;;;;;3.15;1.58;;;;;;;9.65;49.55;99591.59;3136792;28;20110;-73
2022/11/25 06:47:19;;;;;;;2.72;1.30;;;;;;;9.68;49.81;99608.81;3140777;28;20052;-71
2022/11/25 06:48:52;;;;;;;2.22;1.15;;;;;;;9.68;49.73;99607.06;3135577;28;20114;-72
2022/11/25 06:50:28;;;;;;;4.35;2.08;;;;;;;9.71;49.45;99604.31;3136046;28;20057;-71
2022/11/25 06:52:03;;;;;;;2.88;1.38;;;;;;;9.71;49.53;99601.72;3135968;28;20048;-70
2022/11/25 06:53:35;;;;;;;3.90;1.50;;;;;;;9.72;49.32;99600.78;3136302;28;20502;-72
2022/11/25 06:55:08;;;;;;;4.47;1.15;;;;;;;9.74;49.73;99598.16;3136239;28;20059;-69
2022/11/25 06:56:40;;;;;;;8.10;4.93;;;;;;;9.73;49.47;99612.91;3136405;28;20552;-69
2022/11/25 06:58:12;;;;;;;6.57;2.20;;;;;;;9.75;49.24;99611.06;3136536;28;20052;-69
2022/11/25 06:59:55;;;;;;;5.72;2.05;;;;;;;9.75;49.12;99608.47;3136403;28;20118;-74
2022/11/25 07:01:31;;;;;;;2.83;1.30;;;;;;;9.80;49.21;99609.09;3136567;28;20826;-72
2022/11/25 07:03:04;;;;;;;7.75;1.65;;;;;;;9.80;48.96;99614.31;3135666;28;20833;-68
2022/11/25 07:04:36;;;;;;;4.68;1.35;;;;;;;9.84;49.08;99629.78;3136405;28;20056;-76
2022/11/25 07:06:09;;;;;;;2.50;1.27;;;;;;;9.78;49.05;99610.94;3136270;28;20514;-73
2022/11/25 07:07:41;;;;;;;2.47;1.20;;;;;;;9.85;49.08;99614.13;3136427;28;20094;-69
2022/11/25 07:09:13;;;;;;;9.43;1.45;;;;;;;9.86;48.85;99625.34;3135670;28;20056;-73
2022/11/25 07:10:45;;;;;;;3.92;1.20;;;;;;;9.88;49.07;99626.97;3136516;28;20124;-70
2022/11/25 07:12:17;;;;;;;3.20;1.45;;;;;;;9.87;49.21;99616.63;3135668;28;20048;-72
2022/11/25 07:13:53;;;;;;;5.25;1.50;;;;;;;9.89;49.12;99633.88;3136276;28;20099;-76
2022/11/25 07:15:25;;;;;;;4.28;1.77;;;;;;;9.88;49.14;99634.78;3136231;28;20072;-77
2022/11/25 07:16:57;;;;;;;3.45;2.10;;;;;;;9.90;49.11;99632.94;3136016;28;20052;-83
2022/11/25 07:18:32;;;;;;;4.43;1.90;;;;;;;9.56;49.40;99590.25;3136220;28;20080;-76
2022/11/25 07:20:06;;;;;;;6.32;2.28;;;;;;;9.83;49.57;99635.91;3135476;28;20053;-71
2022/11/25 07:21:46;;;;;;;;;;;;;;;9.80;49.51;99637.72;3136390;28;20509;-78
2022/11/25 07:23:19;;;;;;;4.28;1.52;;;;;;;9.80;49.86;99642.06;3135318;28;20043;-73
2022/11/25 07:24:51;;;;;;;3.17;1.50;;;;;;;9.82;49.73;99636.78;3135290;28;20222;-76
2022/11/25 07:26:26;;;;;;;2.97;1.75;;;;;;;9.79;49.60;99627.41;3135520;28;20390;-72
2022/11/25 07:27:58;;;;;;;4.82;1.80;;;;;;;9.84;49.50;99646.22;3135254;28;20686;-72